Tindal Airport

YPTN · 北領地, 澳大利亚

METAR YPTN · Tindal Airport

13 六月 09:30 LT
38m
罗盘
风向 的 风向 的 风向 到 风向 100° Tindal Airport 14/32
风: 4 kt, 2 beaufort

3 kt

3 kt
改变
0 ft 1.000 2.000 3.000 4.000 5.000
未检测到零云
METAR YPTN 130000Z AUTO 10004KT 070V130 9999 // NCD 23/10 Q1017 RF00.0/000.0

METAR Tindal Airport - YPTN/KTR

Tindal Airport是,澳大利亚中的中型机场。 该机场位于纬度-14,52155和经度132,37750。 该机场有一条跑道: 14/32. 本场的ICAO机场代码为YPTN。 该机场的IATA代码为KTR。 机场在Brisbane FIR中。

该航空气象观测是针对Tindal Airport在2024年6月13日 09:30, 当地时间进行的。

机场观察

风向为100°,速度为4 kt。 风向在070°和130°之间变化。

可见度为10 km 或者更多。

有未检测到零云。 没有观察到天花板。

温度和风寒是23 °C。 露点为10 °C,相对湿度为44%。 海平面上的气压为1017 hPa (QNH)。

白天

今天,太阳从07:02升起,在18:18降落。 这适用于Tindal Airport,世界夏令时可能有所不同。 当地时间与世界标准时间之间的时差为+9 小时 30 分钟。 夏令时目前正在进行中。

公司介绍

我们没有关于这个机场的公司信息。

体会

到Vliegles.nl去找飞行课程,跳伞和其他飞行体验。 浏览页面,了解Tindal Airport附近所有可用的活动。 你也可以使用搜索功能来寻找你所在地附近的特定飞行课程、跳伞或其他飞行体验。

跑道

Id 标题 侧风 逆风 侧风 %
14/32 140°-320° 3 kt 3 kt 64 %

逆风成分最大的方向会被突出显示,并用于横风计算。 这并不一定意味着这个方向在使用。

乌云

- NCD 未检测到零云

温度 & 天气

温度 23 °C
露点 10 °C
相对湿度 44%
Kp-index 0 (0-9)

白天

日出
07:02
中午
12:40
日落
18:18 (8:11)

小工具

你想在你的网站上有一个关于Tindal Airport的当前航空天气(METAR)的小部件吗?

显示HTML代码
报告变更